^^
Station Historical Data
Daily Summary for May 11, 2017 Units:  Metric    English   Both
« Previous Day
Next Day »
Daily Weekly Monthly Yearly Custom
  High: Low: Average:
Temperature: 25.3 °C 10 °C 16.4 °C
Dew Point: 6.5 °C -0.8 °C 3.4 °C
Humidity: 67% 20% 45%
Wind Speed: 27.4km/h 0km/h 7.4km/h
Wind Gust: 30.6km/h - -
Wind- - SSW
Pressure: 1018.8 hPa 1014.1 hPa -
Precipitation: 0 mm    
Historical Graphs
 
 
Tabular Data for May 11, 2017
Time Temperature Dew Point Pressure Wind Wind Speed Wind Gust Humidity Rainfall Rate (Hourly) solar Conditions
00:38 16 °C 5 °C 1014.8 hPa Calm     48% 0 mm 0.0 W/m2
00:44 15.9 °C 5.2 °C 1014.8 hPa Calm     49% 0 mm 0.0 W/m2
00:49 15.8 °C 5.1 °C 1014.8 hPa Calm     49% 0 mm 0.0 W/m2
00:54 15.8 °C 5.1 °C 1014.4 hPa Calm     49% 0 mm 0.0 W/m2
01:04 15.8 °C 5.1 °C 1014.4 hPa Calm     49% 0 mm 0.0 W/m2
01:10 15.6 °C 5.2 °C 1014.4 hPa Calm     50% 0 mm 0.0 W/m2
01:20 15.4 °C 5 °C 1014.4 hPa Calm     50% 0 mm 0.0 W/m2
01:25 15.3 °C 5.2 °C 1014.4 hPa Calm     51% 0 mm 0.0 W/m2
01:30 15.3 °C 5.2 °C 1014.4 hPa Calm     51% 0 mm 0.0 W/m2
01:35 15.2 °C 5.1 °C 1014.4 hPa Calm     51% 0 mm 0.0 W/m2
01:40 15 °C 4.9 °C 1014.4 hPa Calm     51% 0 mm 0.0 W/m2
01:46 14.7 °C 4.9 °C 1014.4 hPa Calm     52% 0 mm 0.0 W/m2
01:51 14.4 °C 4.7 °C 1014.4 hPa Calm     52% 0 mm 0.0 W/m2
02:01 14 °C 4.6 °C 1014.1 hPa Calm     53% 0 mm 0.0 W/m2
02:07 13.8 °C 4.7 °C 1014.4 hPa Calm     54% 0 mm 0.0 W/m2
02:12 13.7 °C 4.6 °C 1014.4 hPa Calm     54% 0 mm 0.0 W/m2
02:17 13.7 °C 4.8 °C 1014.4 hPa Calm     55% 0 mm 0.0 W/m2
02:22 13.8 °C 4.9 °C 1014.1 hPa Calm     55% 0 mm 0.0 W/m2
02:32 13.8 °C 4.7 °C 1014.4 hPa Calm     54% 0 mm 0.0 W/m2
02:48 13.3 °C 4.7 °C 1014.1 hPa Calm     56% 0 mm 0.0 W/m2
02:53 13.4 °C 4.8 °C 1014.1 hPa Calm     56% 0 mm 0.0 W/m2
02:58 13.4 °C 4.8 °C 1014.1 hPa Calm     56% 0 mm 0.0 W/m2
03:03 13.4 °C 4.8 °C 1014.1 hPa Calm     56% 0 mm 0.0 W/m2
03:14 13.3 °C 5 °C 1014.1 hPa Calm     57% 0 mm 0.0 W/m2
03:24 12.9 °C 4.6 °C 1014.4 hPa Calm     57% 0 mm 0.0 W/m2
03:29 12.8 °C 4.7 °C 1014.4 hPa Calm     58% 0 mm 0.0 W/m2
03:34 12.8 °C 5 °C 1014.4 hPa Calm     59% 0 mm 0.0 W/m2
03:40 12.9 °C 4.8 °C 1014.4 hPa Calm     58% 0 mm 0.0 W/m2
03:45 12.9 °C 4.8 °C 1014.4 hPa Calm     58% 0 mm 0.0 W/m2
03:55 12.8 °C 5 °C 1014.4 hPa Calm     59% 0 mm 0.0 W/m2
04:00 12.8 °C 5 °C 1014.4 hPa Calm     59% 0 mm 0.0 W/m2
04:05 12.8 °C 5 °C 1014.4 hPa Calm     59% 0 mm 0.0 W/m2
04:11 12.7 °C 4.6 °C 1014.4 hPa Calm     58% 0 mm 0.0 W/m2
04:16 12.5 °C 4.7 °C 1014.4 hPa Calm     59% 0 mm 0.0 W/m2
04:21 12.3 °C 4.5 °C 1014.4 hPa Calm     59% 0 mm 0.0 W/m2
04:26 12.2 °C 4.7 °C 1014.4 hPa Calm     60% 0 mm 0.0 W/m2
04:31 12.1 °C 4.6 °C 1014.4 hPa Calm     60% 0 mm 0.0 W/m2
04:36 11.9 °C 4.8 °C 1014.4 hPa Calm     62% 0 mm 0.0 W/m2
04:42 11.8 °C 4.8 °C 1014.4 hPa Calm     62% 0 mm 0.0 W/m2
04:47 11.8 °C 4.8 °C 1014.4 hPa Calm     62% 0 mm 0.0 W/m2
04:57 11.9 °C 5.1 °C 1014.4 hPa Calm     63% 0 mm 0.0 W/m2
05:02 11.8 °C 4.8 °C 1014.4 hPa Calm     62% 0 mm 0.0 W/m2
05:08 11.6 °C 4.3 °C 1014.4 hPa Calm     61% 0 mm 0.0 W/m2
05:13 11.5 °C 4.9 °C 1014.4 hPa Calm     64% 0 mm 0.0 W/m2
05:18 11.3 °C 4.3 °C 1014.4 hPa Calm     62% 0 mm 0.0 W/m2
05:23 11.3 °C 5 °C 1014.4 hPa Calm     65% 0 mm 0.0 W/m2
05:28 11.3 °C 4.5 °C 1014.8 hPa Calm     63% 0 mm 0.0 W/m2
05:33 11.2 °C 4.4 °C 1014.8 hPa Calm     63% 0 mm 0.0 W/m2
05:38 11.2 °C 4.6 °C 1014.8 hPa Calm     64% 0 mm 0.0 W/m2
05:43 11.2 °C 4.6 °C 1014.8 hPa Calm     64% 0 mm 0.0 W/m2
05:48 11.1 °C 4.3 °C 1014.8 hPa Calm     63% 0 mm 0.0 W/m2
05:53 10.9 °C 4.4 °C 1014.8 hPa Calm     64% 0 mm 0.0 W/m2
05:59 10.8 °C 4 °C 1014.8 hPa Calm     63% 0 mm 0.0 W/m2
06:04 10.7 °C 3.9 °C 1014.8 hPa Calm     63% 0 mm 0.0 W/m2
06:09 10.4 °C 4.1 °C 1014.8 hPa Calm     65% 0 mm 0.0 W/m2
06:19 10.2 °C 3.9 °C 1015.1 hPa Calm     65% 0 mm 0.0 W/m2
06:24 10.1 °C 3.6 °C 1015.1 hPa Calm     64% 0 mm 5.0 W/m2
06:29 10 °C 3.9 °C 1015.1 hPa Calm     66% 0 mm 9.0 W/m2
06:34 10.1 °C 4.2 °C 1015.1 hPa Calm     67% 0 mm 11.0 W/m2
06:39 10.2 °C 4.3 °C 1015.1 hPa Calm     67% 0 mm 12.0 W/m2
06:49 10.3 °C 4.4 °C 1015.5 hPa Calm     67% 0 mm 16.0 W/m2
07:11 11.6 °C 5.2 °C 1015.5 hPa Calm     65% 0 mm 79.0 W/m2
07:25 13.4 °C 6.3 °C 1015.8 hPa Calm     62% 0 mm 137.0 W/m2
07:31 14.1 °C 6.5 °C 1016.1 hPa SSW 11.1 km/h 14.5 km/h 60% 0 mm 178.0 W/m2
07:46 14.8 °C 6.4 °C 1016.1 hPa SSW 13 km/h 16.1 km/h 57% 0 mm 237.0 W/m2
08:06 15.3 °C 6.3 °C 1016.1 hPa SSW 16.3 km/h 19.3 km/h 55% 0 mm 281.0 W/m2
08:16 15.6 °C 6.3 °C 1016.5 hPa SSW 13 km/h 16.1 km/h 54% 0 mm 309.0 W/m2
08:21 16 °C 5.9 °C 1016.5 hPa SSW 9.7 km/h 14.5 km/h 51% 0 mm 343.0 W/m2
08:36 16.3 °C 5.9 °C 1016.5 hPa SSW 14.3 km/h 19.3 km/h 50% 0 mm 385.0 W/m2
08:46 16.7 °C 5.9 °C 1016.5 hPa SSW 9.7 km/h 16.1 km/h 49% 0 mm 411.0 W/m2
08:51 16.9 °C 5.8 °C 1016.5 hPa SSW 11.1 km/h 16.1 km/h 48% 0 mm 424.0 W/m2
08:56 17.1 °C 5.7 °C 1016.5 hPa SSW 11.1 km/h 17.7 km/h 47% 0 mm 439.0 W/m2
09:01 17.2 °C 5.8 °C 1016.5 hPa SSW 14.3 km/h 14.5 km/h 47% 0 mm 452.0 W/m2
09:06 17.4 °C 5.7 °C 1016.5 hPa SSW 13 km/h 17.7 km/h 46% 0 mm 462.0 W/m2
09:11 17.6 °C 5.8 °C 1016.5 hPa SSW 16.3 km/h 17.7 km/h 46% 0 mm 476.0 W/m2
09:16 17.8 °C 5.7 °C 1016.8 hPa SSW 13 km/h 17.7 km/h 45% 0 mm 489.0 W/m2
09:23 18 °C 5.6 °C 1016.8 hPa SSW 14.3 km/h 19.3 km/h 44% 0 mm 497.0 W/m2
09:26 18.2 °C 5.4 °C 1016.8 hPa SSW 13 km/h 19.3 km/h 43% 0 mm 510.0 W/m2
13:04 24.5 °C 2.6 °C 1014.8 hPa SSW 17.7 km/h 20.9 km/h 24% 0 mm 624.0 W/m2
13:18 24.8 °C 1.6 °C 1014.8 hPa SSW 20.9 km/h 20.9 km/h 22% 0 mm 605.0 W/m2
13:27 25.1 °C 1.2 °C 1014.8 hPa SSW 16.3 km/h 24.1 km/h 21% 0 mm 580.0 W/m2
13:37 25 °C 1.2 °C 1014.8 hPa SSW 16.3 km/h 22.5 km/h 21% 0 mm 564.0 W/m2
13:52 25.1 °C 1.2 °C 1014.8 hPa SSW 25.9 km/h 27.4 km/h 21% 0 mm 534.0 W/m2
14:04 25.1 °C 1.2 °C 1014.8 hPa SSW 17.7 km/h 22.5 km/h 21% 0 mm 513.0 W/m2
14:10 25.2 °C 0.6 °C 1014.8 hPa SSW 24.1 km/h 24.1 km/h 20% 0 mm 504.0 W/m2
14:15 25.1 °C 0.6 °C 1014.8 hPa SSW 20.9 km/h 24.1 km/h 20% 0 mm 492.0 W/m2
14:20 25.1 °C 0.6 °C 1014.8 hPa SSW 17.7 km/h 24.1 km/h 20% 0 mm 480.0 W/m2
14:33 25.1 °C 0.6 °C 1014.8 hPa SSW 22.7 km/h 22.7 km/h 20% 0 mm 455.0 W/m2
14:43 25.3 °C 1.4 °C 1014.8 hPa SSW 22.7 km/h 25.7 km/h 21% 0 mm 413.0 W/m2
14:53 25 °C 1.2 °C 1015.1 hPa SSW 20.9 km/h 29 km/h 21% 0 mm 388.0 W/m2
15:08 24.7 °C 1.6 °C 1015.1 hPa SSW 22.7 km/h 29 km/h 22% 0 mm 345.0 W/m2
15:23 24.6 °C 2.1 °C 1015.1 hPa SSW 27.4 km/h 27.4 km/h 23% 0 mm 301.0 W/m2
15:33 24.1 °C 2.3 °C 1015.5 hPa SSW 25.9 km/h 29 km/h 24% 0 mm 269.0 W/m2
15:49 23.9 °C 1.5 °C 1015.5 hPa South 19.5 km/h 30.6 km/h 23% 0 mm 237.0 W/m2
16:04 23.7 °C 0.1 °C 1015.5 hPa South 25.9 km/h 27.4 km/h 21% 0 mm 178.0 W/m2
16:18 23.4 °C -0.8 °C 1015.8 hPa South 25.9 km/h 25.9 km/h 20% 0 mm 118.0 W/m2
16:24 23.4 °C -0.8 °C 1015.8 hPa South 22.7 km/h 22.7 km/h 20% 0 mm 84.0 W/m2
16:39 23.2 °C 0.3 °C 1015.8 hPa South 24.1 km/h 24.1 km/h 22% 0 mm 40.0 W/m2
16:54 22.9 °C 0.7 °C 1015.8 hPa South 16.3 km/h 22.5 km/h 23% 0 mm 12.0 W/m2
17:14 22.4 °C 0.2 °C 1016.1 hPa South 20.9 km/h 25.7 km/h 23% 0 mm 5.0 W/m2
17:29 22.1 °C 0 °C 1016.1 hPa South 16.3 km/h 25.7 km/h 23% 0 mm 0.0 W/m2
17:41 21.7 °C -0.3 °C 1016.8 hPa South 11.1 km/h 19.3 km/h 23% 0 mm 0.0 W/m2
17:44 21.5 °C -0.5 °C 1016.8 hPa South 14.3 km/h 19.3 km/h 23% 0 mm 0.0 W/m2
17:54 21.1 °C -0.8 °C 1016.8 hPa South 14.3 km/h 16.1 km/h 23% 0 mm 0.0 W/m2
18:09 20.5 °C -0.8 °C 1016.8 hPa South 16.3 km/h 19.3 km/h 24% 0 mm 0.0 W/m2
18:24 20.1 °C -0.5 °C 1017.2 hPa South 14.3 km/h 17.7 km/h 25% 0 mm 0.0 W/m2
18:39 19.8 °C -0.3 °C 1017.2 hPa South 13 km/h 17.7 km/h 26% 0 mm 0.0 W/m2
18:54 19.4 °C -0.1 °C 1017.5 hPa South 11.1 km/h 19.3 km/h 27% 0 mm 0.0 W/m2
19:15 19.2 °C 0.2 °C 1017.5 hPa South 14.3 km/h 17.7 km/h 28% 0 mm 0.0 W/m2
19:30 18.9 °C 0.5 °C 1017.8 hPa South 13 km/h 14.5 km/h 29% 0 mm 0.0 W/m2
19:39 18.7 °C 0.3 °C 1017.8 hPa South 13 km/h 16.1 km/h 29% 0 mm 0.0 W/m2
20:00 18.6 °C 0.2 °C 1017.8 hPa South 11.1 km/h 17.7 km/h 29% 0 mm 0.0 W/m2
20:10 18.4 °C 0.5 °C 1018.2 hPa South 11.1 km/h 16.1 km/h 30% 0 mm 0.0 W/m2
20:25 18.3 °C 0.4 °C 1018.2 hPa South 16.3 km/h 17.7 km/h 30% 0 mm 0.0 W/m2
20:30 18.3 °C 0.4 °C 1018.2 hPa South 16.3 km/h 17.7 km/h 30% 0 mm 0.0 W/m2
20:41 18.1 °C 0.2 °C 1018.2 hPa South 9.7 km/h 16.1 km/h 30% 0 mm 0.0 W/m2
20:55 17.6 °C 0.7 °C 1018.5 hPa South 9.7 km/h 12.9 km/h 32% 0 mm 0.0 W/m2
21:01 17.6 °C 1.1 °C 1018.5 hPa South 11.1 km/h 12.9 km/h 33% 0 mm 0.0 W/m2
21:16 17 °C 0.6 °C 1018.5 hPa Calm   6.4 km/h 33% 0 mm 0.0 W/m2
21:22 16.7 °C 0.8 °C 1018.5 hPa Calm     34% 0 mm 0.0 W/m2
21:32 16.3 °C 0.8 °C 1018.5 hPa Calm     35% 0 mm 0.0 W/m2
21:53 15.8 °C 1.5 °C 1018.8 hPa Calm     38% 0 mm 0.0 W/m2
22:07 16.2 °C 2.6 °C 1018.8 hPa South 7.9 km/h 11.3 km/h 40% 0 mm 0.0 W/m2
22:15 16.1 °C 3.2 °C 1018.8 hPa South 7.9 km/h 14.5 km/h 42% 0 mm 0.0 W/m2
Canyon Roadhouse, Fishriver Canyon, Namibia
Compliments of Weather Underground - 2.25 mb